createdAt,value
2018-11-10T00:00:27.742Z,17.03
2018-11-10T00:02:55.930Z,16.97
2018-11-10T00:05:24.734Z,16.10
2018-11-10T00:07:53.004Z,14.80
2018-11-10T00:10:21.602Z,14.43
2018-11-10T00:12:49.865Z,14.30
2018-11-10T00:15:18.061Z,17.07
2018-11-10T00:17:46.395Z,16.13
2018-11-10T00:20:14.578Z,17.03
2018-11-10T00:22:43.089Z,18.47
2018-11-10T00:25:12.505Z,19.37
2018-11-10T00:27:41.398Z,19.03
2018-11-10T00:30:11.434Z,20.13
2018-11-10T00:32:39.793Z,17.77
2018-11-10T00:35:08.283Z,18.20
2018-11-10T00:37:36.469Z,18.57
2018-11-10T00:40:05.235Z,19.37
2018-11-10T00:42:33.423Z,21.37
2018-11-10T00:45:01.607Z,20.47
2018-11-10T00:47:29.791Z,22.87
2018-11-10T00:49:57.961Z,22.57
2018-11-10T00:52:26.146Z,21.73
2018-11-10T00:54:54.325Z,18.10
2018-11-10T00:57:22.506Z,20.67
2018-11-10T00:59:50.681Z,23.83
2018-11-10T01:02:18.870Z,19.47
2018-11-10T01:04:47.057Z,23.17
2018-11-10T01:07:15.246Z,22.67
2018-11-10T01:09:43.453Z,23.33
2018-11-10T01:12:11.629Z,22.20
2018-11-10T01:14:39.807Z,23.67
2018-11-10T01:17:07.982Z,26.43
2018-11-10T01:19:36.161Z,23.50
2018-11-10T01:22:04.765Z,22.00
2018-11-10T01:24:32.946Z,19.03
2018-11-10T01:27:01.143Z,22.40
2018-11-10T01:29:29.322Z,26.20
2018-11-10T01:31:57.510Z,23.53
2018-11-10T01:34:25.690Z,25.50
2018-11-10T01:36:53.868Z,24.20
2018-11-10T01:39:22.043Z,23.30
2018-11-10T01:41:50.235Z,23.93
2018-11-10T01:44:18.422Z,20.47
2018-11-10T01:46:46.602Z,28.03
2018-11-10T01:49:14.769Z,25.53
2018-11-10T01:51:42.949Z,23.53
2018-11-10T01:54:11.126Z,21.83
2018-11-10T01:56:39.342Z,26.47
2018-11-10T01:59:07.557Z,20.67
2018-11-10T02:01:35.733Z,22.20
2018-11-10T02:04:03.918Z,21.83
2018-11-10T02:06:32.151Z,23.77
2018-11-10T02:09:00.288Z,20.47
2018-11-10T02:11:28.470Z,22.83
2018-11-10T02:13:56.648Z,20.23
2018-11-10T02:16:24.817Z,21.37
2018-11-10T02:18:52.990Z,22.53
2018-11-10T02:21:21.164Z,23.10
2018-11-10T02:23:49.362Z,20.67
2018-11-10T02:26:17.549Z,21.97
2018-11-10T02:28:45.744Z,24.33
2018-11-10T02:31:13.913Z,21.30
2018-11-10T02:33:42.097Z,19.33
2018-11-10T02:36:10.326Z,15.07
2018-11-10T02:38:38.579Z,20.53
2018-11-10T02:41:06.674Z,19.67
2018-11-10T02:43:34.861Z,20.40
2018-11-10T02:46:03.034Z,22.90
2018-11-10T02:48:31.223Z,22.07
2018-11-10T02:50:59.406Z,21.60
2018-11-10T02:53:27.591Z,20.13
2018-11-10T02:55:55.766Z,19.27
2018-11-10T02:58:23.949Z,19.37
2018-11-10T03:00:52.139Z,17.93
2018-11-10T03:03:20.329Z,20.50
2018-11-10T03:05:48.505Z,18.17
2018-11-10T03:08:16.702Z,21.00
2018-11-10T03:10:45.000Z,18.13
2018-11-10T03:13:13.138Z,21.93
2018-11-10T03:15:41.310Z,17.67
2018-11-10T03:18:09.493Z,19.13
2018-11-10T03:20:37.670Z,20.10
2018-11-10T03:23:05.859Z,15.47
2018-11-10T03:25:34.025Z,16.17
2018-11-10T03:28:02.206Z,17.00
2018-11-10T03:30:30.382Z,15.43
2018-11-10T03:32:58.569Z,17.53
2018-11-10T03:35:26.840Z,13.63
2018-11-10T03:37:55.005Z,16.13
2018-11-10T03:40:23.181Z,12.50
2018-11-10T03:42:51.354Z,11.80
2018-11-10T03:45:19.521Z,12.43
2018-11-10T03:47:47.702Z,10.23
2018-11-10T03:50:15.873Z,10.87
2018-11-10T03:52:44.053Z,11.23
2018-11-10T03:55:12.229Z,10.93
2018-11-10T03:57:40.397Z,10.70
2018-11-10T04:00:12.965Z,7.60
2018-11-10T04:02:42.387Z,9.00
2018-11-10T04:05:11.374Z,9.10
2018-11-10T04:07:40.065Z,8.83
2018-11-10T04:10:08.227Z,7.07
2018-11-10T04:12:36.458Z,7.03
2018-11-10T04:15:05.103Z,6.30
2018-11-10T04:17:33.227Z,9.70
2018-11-10T04:20:01.361Z,6.00
2018-11-10T04:22:38.889Z,7.70
2018-11-10T04:25:08.430Z,10.80
2018-11-10T04:27:36.626Z,6.53
2018-11-10T04:30:06.006Z,5.77
2018-11-10T04:32:34.830Z,7.47
2018-11-10T04:35:02.982Z,6.53
2018-11-10T04:37:31.114Z,8.13
2018-11-10T04:39:59.245Z,5.77
2018-11-10T04:42:27.387Z,5.63
2018-11-10T04:44:55.525Z,6.37
2018-11-10T04:47:23.646Z,7.07
2018-11-10T04:49:51.837Z,5.80
2018-11-10T04:52:19.902Z,8.37
2018-11-10T04:54:48.034Z,5.00
2018-11-10T04:57:16.158Z,5.70
2018-11-10T04:59:44.293Z,16.20
2018-11-10T05:02:12.712Z,7.97
2018-11-10T05:04:40.889Z,6.17
2018-11-10T05:07:09.057Z,5.97
2018-11-10T05:09:37.242Z,6.20
2018-11-10T05:12:05.618Z,7.13
2018-11-10T05:14:33.806Z,6.80
2018-11-10T05:17:01.987Z,6.40
2018-11-10T05:19:30.170Z,7.00
2018-11-10T05:21:58.353Z,6.60
2018-11-10T05:24:26.571Z,6.00
2018-11-10T05:26:54.738Z,5.10
2018-11-10T05:29:22.922Z,5.03
2018-11-10T05:31:51.098Z,6.73
2018-11-10T05:34:19.278Z,6.27
2018-11-10T05:36:47.657Z,6.80
2018-11-10T05:39:15.839Z,4.87
2018-11-10T05:41:44.010Z,4.83
2018-11-10T05:44:12.193Z,4.83
2018-11-10T05:46:40.382Z,5.73
2018-11-10T05:49:08.658Z,8.07
2018-11-10T05:51:36.832Z,4.90
2018-11-10T05:54:05.284Z,5.30
2018-11-10T05:56:33.462Z,4.97
2018-11-10T05:59:01.662Z,4.60
2018-11-10T06:01:29.865Z,3.80
2018-11-10T06:03:58.051Z,3.93
2018-11-10T06:06:26.174Z,5.03
2018-11-10T06:08:54.305Z,5.87
2018-11-10T06:11:22.426Z,4.03
2018-11-10T06:13:50.567Z,4.30
2018-11-10T06:16:18.697Z,6.50
2018-11-10T06:18:46.894Z,7.10
2018-11-10T06:21:14.978Z,7.23
2018-11-10T06:23:43.149Z,9.00
2018-11-10T06:26:11.390Z,6.80
2018-11-10T06:28:39.481Z,6.83
2018-11-10T06:31:07.662Z,7.93
2018-11-10T06:33:35.849Z,6.20
2018-11-10T06:36:04.037Z,9.00
2018-11-10T06:38:32.207Z,5.63
2018-11-10T06:41:00.394Z,7.07
2018-11-10T06:43:28.566Z,5.67
2018-11-10T06:45:56.754Z,8.37
2018-11-10T06:48:24.926Z,7.47
2018-11-10T06:50:53.107Z,8.10
2018-11-10T06:53:21.265Z,7.77
2018-11-10T06:55:49.449Z,12.07
2018-11-10T06:58:17.629Z,8.97
2018-11-10T07:00:45.807Z,9.13
2018-11-10T07:03:13.982Z,9.13
2018-11-10T07:05:42.178Z,11.20
2018-11-10T07:08:10.352Z,7.50
2018-11-10T07:10:38.535Z,7.70
2018-11-10T07:13:06.736Z,10.83
2018-11-10T07:15:34.931Z,9.33
2018-11-10T07:18:03.157Z,8.00
2018-11-10T07:20:31.281Z,8.30
2018-11-10T07:22:59.713Z,9.57
2018-11-10T07:25:27.889Z,9.00
2018-11-10T07:27:56.062Z,10.10
2018-11-10T07:30:24.253Z,8.57
2018-11-10T07:32:52.421Z,8.70
2018-11-10T07:35:20.607Z,8.53
2018-11-10T07:37:48.777Z,9.30
2018-11-10T07:40:16.966Z,7.90
2018-11-10T07:42:45.133Z,9.40
2018-11-10T07:45:14.654Z,9.17
2018-11-10T07:47:43.553Z,8.83
2018-11-10T07:50:12.139Z,7.30
2018-11-10T07:52:41.122Z,8.80
2018-11-10T07:55:10.738Z,9.43
2018-11-10T07:57:38.910Z,7.83
2018-11-10T08:00:10.479Z,8.63
2018-11-10T08:02:38.677Z,6.97
2018-11-10T08:05:07.355Z,8.83
2018-11-10T08:07:35.485Z,8.33
2018-11-10T08:10:03.793Z,7.83
2018-11-10T08:12:32.077Z,6.90
2018-11-10T08:15:00.202Z,5.47
2018-11-10T08:17:28.338Z,7.50
2018-11-10T08:19:56.470Z,6.30
2018-11-10T08:22:24.687Z,6.20
2018-11-10T08:24:52.886Z,5.23
2018-11-10T08:27:21.146Z,5.90
2018-11-10T08:29:49.266Z,6.03
2018-11-10T08:32:17.417Z,5.90
2018-11-10T08:34:45.573Z,5.53
2018-11-10T08:37:13.750Z,9.87
2018-11-10T08:39:41.869Z,4.63
2018-11-10T08:42:10.009Z,4.90
2018-11-10T08:44:38.125Z,4.17
2018-11-10T08:47:06.575Z,5.73
2018-11-10T08:49:34.698Z,4.27
2018-11-10T08:52:02.844Z,5.23
2018-11-10T08:54:30.965Z,3.30
2018-11-10T08:56:59.114Z,7.80
2018-11-10T08:59:27.247Z,4.57
2018-11-10T09:01:55.387Z,4.43
2018-11-10T09:04:23.538Z,3.53
2018-11-10T09:06:51.686Z,4.50
2018-11-10T09:09:19.815Z,5.17
2018-11-10T09:11:47.958Z,5.20
2018-11-10T09:14:16.095Z,4.50
2018-11-10T09:16:44.267Z,4.50
2018-11-10T09:19:12.403Z,4.77
2018-11-10T09:21:40.662Z,6.43
2018-11-10T09:24:08.726Z,4.53
2018-11-10T09:26:36.858Z,6.70
2018-11-10T09:29:05.342Z,4.00
2018-11-10T09:31:33.491Z,4.70
2018-11-10T09:34:01.609Z,3.90
2018-11-10T09:36:29.818Z,5.53
2018-11-10T09:38:57.886Z,6.67
2018-11-10T09:41:26.049Z,4.03
2018-11-10T09:43:54.243Z,6.37
2018-11-10T09:46:23.225Z,4.27
2018-11-10T09:48:51.358Z,5.50
2018-11-10T09:51:19.500Z,4.43
2018-11-10T09:53:47.633Z,3.67
2018-11-10T09:56:15.765Z,3.80
2018-11-10T09:58:43.922Z,5.03
2018-11-10T10:01:12.181Z,3.40
2018-11-10T10:03:40.200Z,3.47
2018-11-10T10:06:08.386Z,2.87
2018-11-10T10:08:36.591Z,7.30
2018-11-10T10:11:04.928Z,3.87
2018-11-10T10:13:33.102Z,4.27
2018-11-10T10:16:01.386Z,4.53
2018-11-10T10:18:29.482Z,4.23
2018-11-10T10:20:57.662Z,4.37
2018-11-10T10:23:25.857Z,4.10
2018-11-10T10:25:54.035Z,4.50
2018-11-10T10:28:22.248Z,2.73
2018-11-10T10:30:50.398Z,3.63
2018-11-10T10:33:18.592Z,2.47
2018-11-10T10:35:46.770Z,3.30
2018-11-10T10:38:14.963Z,4.63
2018-11-10T10:40:43.150Z,3.70
2018-11-10T10:43:11.325Z,3.37
2018-11-10T10:45:39.506Z,5.00
2018-11-10T10:48:07.691Z,4.73
2018-11-10T10:50:35.874Z,3.93
2018-11-10T10:53:04.071Z,3.63
2018-11-10T10:55:32.267Z,3.30
2018-11-10T10:58:00.486Z,3.23
2018-11-10T11:01:37.602Z,4.37
2018-11-10T11:04:11.273Z,3.70
2018-11-10T11:06:39.415Z,3.83
2018-11-10T11:09:08.023Z,2.33
2018-11-10T11:11:36.118Z,4.47
2018-11-10T11:14:04.292Z,4.30
2018-11-10T11:16:32.405Z,3.03
2018-11-10T11:19:00.553Z,2.40
2018-11-10T11:21:28.689Z,4.23
2018-11-10T11:23:56.922Z,3.40
2018-11-10T11:26:25.062Z,2.93
2018-11-10T11:28:53.218Z,2.03
2018-11-10T11:31:21.350Z,2.30
2018-11-10T11:33:49.566Z,2.10
2018-11-10T11:36:17.708Z,3.17
2018-11-10T11:38:45.853Z,2.73
2018-11-10T11:41:14.027Z,3.20
2018-11-10T11:43:42.154Z,4.03
2018-11-10T11:46:10.297Z,3.07
2018-11-10T11:48:38.457Z,2.80
2018-11-10T11:51:06.590Z,2.87
2018-11-10T11:53:34.729Z,2.70
2018-11-10T11:56:02.898Z,3.50
2018-11-10T11:58:31.038Z,2.67
2018-11-10T12:00:59.170Z,4.43
2018-11-10T12:03:27.309Z,4.13
2018-11-10T12:05:55.537Z,3.80
2018-11-10T12:08:23.767Z,2.53
2018-11-10T12:10:51.970Z,3.63
2018-11-10T12:13:20.144Z,4.30
2018-11-10T12:15:48.323Z,4.40
2018-11-10T12:18:16.505Z,5.33
2018-11-10T12:20:44.714Z,3.50
2018-11-10T12:23:12.871Z,3.93
2018-11-10T12:25:41.051Z,4.70
2018-11-10T12:28:09.237Z,3.70
2018-11-10T12:30:37.512Z,4.20
2018-11-10T12:33:05.817Z,4.00
2018-11-10T12:35:33.993Z,3.50
2018-11-10T12:38:02.256Z,3.57
2018-11-10T12:40:30.427Z,3.97
2018-11-10T12:42:58.613Z,4.53
2018-11-10T12:45:26.825Z,5.70
2018-11-10T12:47:55.021Z,4.60
2018-11-10T12:50:23.210Z,6.13
2018-11-10T12:52:51.425Z,5.53
2018-11-10T12:55:19.842Z,5.83
2018-11-10T12:57:47.903Z,4.37
2018-11-10T13:00:17.170Z,3.30
2018-11-10T13:02:45.734Z,5.00
2018-11-10T13:05:14.018Z,5.27
2018-11-10T13:07:43.927Z,4.87
2018-11-10T13:10:12.426Z,6.10
2018-11-10T13:12:41.349Z,4.30
2018-11-10T13:15:09.894Z,5.17
2018-11-10T13:17:38.382Z,5.27
2018-11-10T13:20:08.871Z,4.40
2018-11-10T13:22:36.997Z,6.80
2018-11-10T13:25:06.043Z,4.97
2018-11-10T13:27:34.201Z,6.47
2018-11-10T13:30:02.353Z,5.03
2018-11-10T13:32:30.530Z,4.83
2018-11-10T13:34:58.689Z,4.67
2018-11-10T13:37:26.826Z,5.43
2018-11-10T13:39:55.276Z,7.10
2018-11-10T13:42:23.455Z,7.30
2018-11-10T13:44:51.554Z,6.30
2018-11-10T13:47:19.738Z,5.77
2018-11-10T13:49:47.866Z,7.70
2018-11-10T13:52:16.519Z,7.00
2018-11-10T13:54:44.174Z,11.47
2018-11-10T13:57:12.337Z,10.07
2018-11-10T13:59:40.569Z,9.03
2018-11-10T14:02:08.705Z,9.83
2018-11-10T14:04:36.856Z,8.97
2018-11-10T14:07:05.031Z,10.33
2018-11-10T14:09:33.183Z,8.00
2018-11-10T14:12:01.315Z,9.60
2018-11-10T14:14:29.477Z,8.90
2018-11-10T14:16:57.631Z,9.17
2018-11-10T14:19:25.834Z,11.13
2018-11-10T14:21:53.955Z,8.67
2018-11-10T14:24:22.076Z,10.53
2018-11-10T14:26:50.217Z,8.33
2018-11-10T14:29:18.358Z,8.43
2018-11-10T14:31:46.537Z,8.57
2018-11-10T14:34:14.732Z,9.30
2018-11-10T14:36:42.866Z,8.03
2018-11-10T14:39:11.638Z,8.50
2018-11-10T14:41:39.844Z,8.30
2018-11-10T14:44:08.762Z,9.07
2018-11-10T14:46:37.391Z,7.63
2018-11-10T14:49:05.785Z,9.53
2018-11-10T14:51:34.056Z,9.13
2018-11-10T14:54:02.235Z,7.20
2018-11-10T14:56:30.373Z,8.53
2018-11-10T14:58:58.515Z,6.47
2018-11-10T15:01:26.697Z,8.00
2018-11-10T15:03:54.846Z,5.87
2018-11-10T15:06:23.030Z,7.27
2018-11-10T15:08:51.208Z,5.57
2018-11-10T15:11:19.390Z,6.00
2018-11-10T15:13:47.578Z,6.03
2018-11-10T15:16:15.777Z,6.17
2018-11-10T15:18:43.949Z,8.40
2018-11-10T15:21:12.166Z,5.37
2018-11-10T15:23:40.345Z,7.00
2018-11-10T15:26:08.565Z,8.00
2018-11-10T15:28:36.763Z,8.93
2018-11-10T15:31:04.982Z,5.90
2018-11-10T15:33:33.222Z,6.40
2018-11-10T15:36:01.423Z,6.10
2018-11-10T15:38:29.598Z,6.10
2018-11-10T15:40:57.777Z,6.93
2018-11-10T15:43:25.990Z,8.13
2018-11-10T15:45:54.209Z,7.13
2018-11-10T15:48:22.485Z,5.93
2018-11-10T15:50:50.655Z,7.77
2018-11-10T15:53:18.944Z,6.20
2018-11-10T15:55:47.119Z,6.37
2018-11-10T15:58:15.300Z,7.87
2018-11-10T16:00:43.490Z,7.27
2018-11-10T16:03:11.674Z,5.67
2018-11-10T16:05:39.881Z,4.80
2018-11-10T16:08:08.101Z,4.60
2018-11-10T16:10:36.286Z,4.30
2018-11-10T16:13:04.746Z,4.80
2018-11-10T16:15:32.934Z,5.70
2018-11-10T16:18:01.117Z,5.87
2018-11-10T16:20:29.289Z,5.40
2018-11-10T16:22:57.472Z,3.53
2018-11-10T16:25:25.650Z,5.13
2018-11-10T16:27:53.859Z,5.17
2018-11-10T16:30:22.037Z,3.57
2018-11-10T16:32:50.682Z,4.10
2018-11-10T16:35:18.874Z,3.67
2018-11-10T16:37:47.089Z,4.47
2018-11-10T16:40:16.684Z,4.57
2018-11-10T16:42:45.741Z,5.00
2018-11-10T16:45:14.629Z,4.60
2018-11-10T16:47:42.808Z,4.50
2018-11-10T16:50:11.383Z,5.13
2018-11-10T16:52:40.183Z,4.53
2018-11-10T16:55:08.535Z,5.57
2018-11-10T16:57:36.846Z,3.80
2018-11-10T17:00:07.370Z,5.10
2018-11-10T17:02:35.565Z,3.33
2018-11-10T17:05:04.031Z,4.00
2018-11-10T17:07:32.214Z,5.53
2018-11-10T17:10:00.415Z,3.93
2018-11-10T17:12:28.605Z,3.67
2018-11-10T17:14:56.787Z,4.10
2018-11-10T17:17:24.991Z,6.87
2018-11-10T17:19:53.254Z,2.60
2018-11-10T17:22:21.553Z,3.40
2018-11-10T17:24:49.810Z,3.60
2018-11-10T17:27:18.015Z,3.00
2018-11-10T17:29:46.251Z,3.57
2018-11-10T17:32:14.494Z,4.33
2018-11-10T17:34:42.716Z,3.40
2018-11-10T17:37:10.961Z,4.10
2018-11-10T17:39:39.398Z,6.03
2018-11-10T17:42:07.452Z,4.90
2018-11-10T17:44:35.597Z,3.40
2018-11-10T17:47:03.981Z,3.43
2018-11-10T17:49:32.174Z,2.60
2018-11-10T17:52:00.388Z,3.33
2018-11-10T17:54:28.607Z,3.93
2018-11-10T17:56:56.941Z,2.90
2018-11-10T17:59:25.406Z,3.97
2018-11-10T18:01:54.006Z,3.03
2018-11-10T18:04:22.084Z,2.83
2018-11-10T18:06:50.525Z,4.27
2018-11-10T18:09:18.713Z,2.30
2018-11-10T18:11:46.882Z,3.50
2018-11-10T18:14:15.014Z,2.63
2018-11-10T18:16:43.151Z,2.43
2018-11-10T18:19:11.342Z,3.60
2018-11-10T18:21:39.436Z,3.47
2018-11-10T18:24:07.586Z,3.33
2018-11-10T18:26:35.718Z,4.33
2018-11-10T18:29:03.907Z,2.70
2018-11-10T18:31:31.990Z,2.40
2018-11-10T18:34:00.179Z,2.60
2018-11-10T18:36:28.362Z,4.23
2018-11-10T18:38:56.535Z,3.27
2018-11-10T18:41:24.693Z,3.07
2018-11-10T18:43:52.826Z,2.30
2018-11-10T18:46:20.993Z,2.73
2018-11-10T18:48:49.211Z,2.23
2018-11-10T18:51:17.342Z,2.50
2018-11-10T18:53:45.608Z,2.50
2018-11-10T18:56:13.821Z,3.53
2018-11-10T18:58:41.963Z,3.23
2018-11-10T19:01:10.109Z,4.33
2018-11-10T19:03:38.561Z,2.33
2018-11-10T19:06:06.726Z,2.20
2018-11-10T19:08:34.893Z,2.43
2018-11-10T19:11:03.026Z,3.57
2018-11-10T19:13:31.171Z,6.27
2018-11-10T19:15:59.359Z,2.47
2018-11-10T19:18:27.628Z,3.07
2018-11-10T19:20:55.785Z,3.33
2018-11-10T19:23:23.901Z,3.83
2018-11-10T19:25:52.067Z,3.20
2018-11-10T19:28:20.251Z,2.83
2018-11-10T19:30:48.410Z,2.90
2018-11-10T19:33:16.562Z,3.67
2018-11-10T19:35:44.730Z,3.10
2018-11-10T19:38:12.871Z,3.97
2018-11-10T19:40:41.026Z,4.03
2018-11-10T19:43:09.171Z,2.47
2018-11-10T19:45:37.306Z,3.17
2018-11-10T19:48:05.501Z,2.90
2018-11-10T19:50:33.700Z,4.57
2018-11-10T19:53:01.850Z,3.13
2018-11-10T19:55:30.070Z,2.80
2018-11-10T19:57:58.209Z,3.03
2018-11-10T20:00:26.446Z,5.77
2018-11-10T20:02:54.623Z,3.67
2018-11-10T20:05:22.780Z,4.07
2018-11-10T20:07:50.927Z,2.40
2018-11-10T20:10:19.164Z,3.63
2018-11-10T20:12:47.506Z,3.70
2018-11-10T20:15:16.385Z,3.33
2018-11-10T20:17:44.921Z,3.20
2018-11-10T20:20:14.291Z,3.23
2018-11-10T20:22:42.761Z,3.43
2018-11-10T20:25:13.070Z,3.63
2018-11-10T20:27:41.577Z,3.93
2018-11-10T20:30:13.122Z,4.70
2018-11-10T20:32:41.356Z,4.83
2018-11-10T20:35:10.834Z,4.87
2018-11-10T20:37:39.510Z,3.60
2018-11-10T20:40:09.039Z,4.20
2018-11-10T20:42:37.242Z,4.10
2018-11-10T20:45:07.906Z,3.40
2018-11-10T20:47:36.110Z,3.57
2018-11-10T20:50:04.459Z,3.27
2018-11-10T20:52:35.026Z,4.27
2018-11-10T20:55:04.002Z,4.60
2018-11-10T20:57:32.193Z,6.77
2018-11-10T21:00:00.769Z,5.43
2018-11-10T21:02:28.853Z,4.40
2018-11-10T21:04:57.284Z,4.33
2018-11-10T21:07:25.527Z,3.90
2018-11-10T21:09:53.701Z,6.50
2018-11-10T21:12:21.923Z,4.10
2018-11-10T21:14:50.121Z,4.50
2018-11-10T21:17:18.250Z,4.10
2018-11-10T21:19:46.385Z,4.03
2018-11-10T21:22:14.630Z,5.30
2018-11-10T21:24:43.486Z,7.10
2018-11-10T21:27:11.618Z,5.33
2018-11-10T21:29:40.094Z,4.67
2018-11-10T21:32:08.727Z,4.30
2018-11-10T21:34:37.130Z,7.00
2018-11-10T21:37:05.655Z,3.97
2018-11-10T21:39:33.793Z,3.67
2018-11-10T21:42:01.930Z,4.50
2018-11-10T21:44:30.078Z,5.37
2018-11-10T21:46:58.217Z,7.63
2018-11-10T21:49:26.473Z,3.93
2018-11-10T21:51:54.674Z,4.00
2018-11-10T21:54:22.809Z,3.70
2018-11-10T21:56:50.947Z,3.87
2018-11-10T21:59:19.078Z,5.30
2018-11-10T22:01:47.479Z,4.07
2018-11-10T22:04:15.953Z,4.10
2018-11-10T22:06:44.089Z,4.50
2018-11-10T22:09:12.990Z,2.97
2018-11-10T22:11:42.783Z,4.00
2018-11-10T22:14:10.923Z,5.83
2018-11-10T22:16:39.053Z,4.53
2018-11-10T22:19:07.202Z,3.47
2018-11-10T22:21:35.666Z,3.20
2018-11-10T22:24:03.819Z,3.20
2018-11-10T22:26:31.982Z,3.50
2018-11-10T22:29:00.106Z,3.70
2018-11-10T22:31:28.316Z,2.50
2018-11-10T22:33:56.426Z,3.07
2018-11-10T22:36:24.566Z,3.80
2018-11-10T22:38:52.701Z,4.53
2018-11-10T22:41:20.925Z,4.13
2018-11-10T22:43:49.038Z,3.37
2018-11-10T22:46:17.193Z,3.57
2018-11-10T22:48:45.355Z,4.00
2018-11-10T22:51:13.485Z,4.40
2018-11-10T22:53:41.606Z,4.80
2018-11-10T22:56:09.788Z,4.90
2018-11-10T22:58:37.905Z,3.40
2018-11-10T23:01:07.674Z,6.10
2018-11-10T23:03:36.649Z,4.47
2018-11-10T23:06:04.925Z,4.67
2018-11-10T23:08:33.105Z,3.90
2018-11-10T23:11:01.278Z,5.00
2018-11-10T23:13:29.454Z,4.43
2018-11-10T23:15:57.642Z,5.77
2018-11-10T23:18:25.819Z,4.40
2018-11-10T23:20:54.024Z,3.73
2018-11-10T23:23:22.234Z,3.00
2018-11-10T23:25:50.419Z,4.33
2018-11-10T23:28:18.720Z,4.23
2018-11-10T23:30:46.898Z,2.60
2018-11-10T23:33:15.086Z,2.70
2018-11-10T23:35:43.290Z,2.63
2018-11-10T23:38:11.467Z,3.47
2018-11-10T23:40:39.642Z,3.73
2018-11-10T23:43:07.825Z,2.63
2018-11-10T23:45:35.993Z,4.13
2018-11-10T23:48:04.525Z,2.80
2018-11-10T23:50:32.706Z,2.70
2018-11-10T23:53:00.897Z,3.63
2018-11-10T23:55:29.090Z,2.73
2018-11-10T23:57:57.275Z,4.13
